createdAt,value
2022-10-01T00:00:36.277Z,100.00
2022-10-01T00:03:42.129Z,100.00
2022-10-01T00:06:48.389Z,100.00
2022-10-01T00:09:53.847Z,100.00
2022-10-01T00:12:59.180Z,100.00
2022-10-01T00:16:11.561Z,100.00
2022-10-01T00:19:16.982Z,100.00
2022-10-01T00:22:22.743Z,100.00
2022-10-01T00:25:28.788Z,100.00
2022-10-01T00:28:34.852Z,100.00
2022-10-01T00:31:40.697Z,100.00
2022-10-01T00:34:46.243Z,100.00
2022-10-01T00:37:52.750Z,100.00
2022-10-01T00:40:59.136Z,100.00
2022-10-01T00:44:32.896Z,100.00
2022-10-01T00:47:43.548Z,100.00
2022-10-01T00:50:50.387Z,100.00
2022-10-01T00:54:03.206Z,100.00
2022-10-01T00:57:09.133Z,100.00
2022-10-01T01:00:15.376Z,100.00
2022-10-01T01:03:20.778Z,100.00
2022-10-01T01:06:26.449Z,100.00
2022-10-01T01:09:36.418Z,100.00
2022-10-01T01:12:41.688Z,100.00
2022-10-01T01:16:09.499Z,100.00
2022-10-01T01:19:38.427Z,100.00
2022-10-01T01:22:54.726Z,100.00
2022-10-01T01:26:12.187Z,100.00
2022-10-01T01:29:35.923Z,100.00
2022-10-01T01:32:51.925Z,100.00
2022-10-01T01:36:04.905Z,100.00
2022-10-01T01:39:14.896Z,100.00
2022-10-01T01:42:28.243Z,100.00
2022-10-01T01:45:36.634Z,100.00
2022-10-01T01:48:47.972Z,100.00
2022-10-01T01:52:03.484Z,100.00
2022-10-01T01:55:11.032Z,100.00
2022-10-01T01:58:18.991Z,100.00
2022-10-01T02:01:41.795Z,100.00
2022-10-01T02:04:55.168Z,100.00
2022-10-01T02:08:30.316Z,100.00
2022-10-01T02:11:38.578Z,100.00
2022-10-01T02:14:56.947Z,100.00
2022-10-01T02:18:30.570Z,100.00
2022-10-01T02:21:45.518Z,100.00
2022-10-01T02:24:57.457Z,100.00
2022-10-01T02:28:08.815Z,100.00
2022-10-01T02:31:18.407Z,100.00
2022-10-01T02:34:29.345Z,100.00
2022-10-01T02:37:38.748Z,100.00
2022-10-01T02:40:48.000Z,100.00
2022-10-01T02:44:00.568Z,100.00
2022-10-01T02:47:24.403Z,100.00
2022-10-01T02:50:38.247Z,100.00
2022-10-01T02:53:53.223Z,100.00
2022-10-01T02:57:17.360Z,100.00
2022-10-01T03:00:22.811Z,100.00
2022-10-01T03:03:28.182Z,100.00
2022-10-01T03:06:36.343Z,100.00
2022-10-01T03:09:42.266Z,100.00
2022-10-01T03:12:48.019Z,100.00
2022-10-01T03:15:53.738Z,100.00
2022-10-01T03:18:59.449Z,100.00
2022-10-01T03:22:05.298Z,100.00
2022-10-01T03:25:10.469Z,100.00
2022-10-01T03:28:16.405Z,100.00
2022-10-01T03:31:22.044Z,100.00
2022-10-01T03:34:28.011Z,100.00
2022-10-01T03:37:33.835Z,100.00
2022-10-01T03:40:39.351Z,100.00
2022-10-01T03:43:44.811Z,100.00
2022-10-01T03:46:50.379Z,100.00
2022-10-01T03:49:55.486Z,100.00
2022-10-01T03:53:00.560Z,100.00
2022-10-01T03:56:06.133Z,100.00
2022-10-01T03:59:12.273Z,100.00
2022-10-01T04:02:17.858Z,100.00
2022-10-01T04:05:25.942Z,100.00
2022-10-01T04:08:31.977Z,100.00
2022-10-01T04:11:39.145Z,100.00
2022-10-01T04:14:44.503Z,100.00
2022-10-01T04:17:49.877Z,100.00
2022-10-01T04:20:55.316Z,100.00
2022-10-01T04:24:01.552Z,100.00
2022-10-01T04:27:07.366Z,100.00
2022-10-01T04:30:12.999Z,100.00
2022-10-01T04:33:18.790Z,100.00
2022-10-01T04:36:25.871Z,100.00
2022-10-01T04:39:31.469Z,100.00
2022-10-01T04:42:42.807Z,100.00
2022-10-01T04:45:48.432Z,100.00
2022-10-01T04:48:54.188Z,100.00
2022-10-01T04:52:03.861Z,100.00
2022-10-01T04:55:09.825Z,100.00
2022-10-01T04:58:15.497Z,100.00
2022-10-01T05:01:21.252Z,100.00
2022-10-01T05:04:27.882Z,100.00
2022-10-01T05:07:35.050Z,100.00
2022-10-01T05:10:40.582Z,100.00
2022-10-01T05:13:46.787Z,100.00
2022-10-01T05:16:52.310Z,100.00
2022-10-01T05:19:58.200Z,100.00
2022-10-01T05:23:03.634Z,100.00
2022-10-01T05:26:09.820Z,100.00
2022-10-01T05:29:15.634Z,100.00
2022-10-01T05:32:21.657Z,100.00
2022-10-01T05:35:28.253Z,100.00
2022-10-01T05:38:37.514Z,100.00
2022-10-01T05:41:43.158Z,100.00
2022-10-01T05:44:50.587Z,100.00
2022-10-01T05:48:04.701Z,100.00
2022-10-01T05:51:10.313Z,100.00
2022-10-01T05:54:19.750Z,100.00
2022-10-01T05:57:27.782Z,100.00
2022-10-01T06:00:34.876Z,100.00
2022-10-01T06:03:40.062Z,100.00
2022-10-01T06:06:45.165Z,100.00
2022-10-01T06:09:50.547Z,100.00
2022-10-01T06:13:01.445Z,100.00
2022-10-01T06:16:07.179Z,100.00
2022-10-01T06:19:12.721Z,100.00
2022-10-01T06:22:18.455Z,100.00
2022-10-01T06:25:24.911Z,100.00
2022-10-01T06:28:30.969Z,100.00
2022-10-01T06:31:36.864Z,100.00
2022-10-01T06:34:42.309Z,100.00
2022-10-01T06:37:47.745Z,100.00
2022-10-01T06:40:58.542Z,100.00
2022-10-01T06:44:04.464Z,100.00
2022-10-01T06:47:10.092Z,100.00
2022-10-01T06:50:15.515Z,100.00
2022-10-01T06:53:21.164Z,100.00
2022-10-01T06:56:26.675Z,100.00
2022-10-01T06:59:32.080Z,100.00
2022-10-01T07:02:37.803Z,100.00
2022-10-01T07:05:43.781Z,100.00
2022-10-01T07:08:52.248Z,100.00
2022-10-01T07:11:57.715Z,100.00
2022-10-01T07:15:03.507Z,100.00
2022-10-01T07:18:09.984Z,100.00
2022-10-01T07:21:15.763Z,100.00
2022-10-01T07:24:21.359Z,100.00
2022-10-01T07:27:26.685Z,100.00
2022-10-01T07:30:33.508Z,100.00
2022-10-01T07:33:42.139Z,100.00
2022-10-01T07:36:49.444Z,100.00
2022-10-01T07:39:55.221Z,100.00
2022-10-01T07:43:00.672Z,100.00
2022-10-01T07:46:07.410Z,100.00
2022-10-01T07:49:12.706Z,100.00
2022-10-01T07:52:17.838Z,100.00
2022-10-01T07:55:24.596Z,100.00
2022-10-01T07:58:29.979Z,100.00
2022-10-01T08:01:35.628Z,100.00
2022-10-01T08:04:59.678Z,100.00
2022-10-01T08:08:08.416Z,100.00
2022-10-01T08:11:17.959Z,100.00
2022-10-01T08:14:23.708Z,100.00
2022-10-01T08:17:30.083Z,100.00
2022-10-01T08:20:35.719Z,100.00
2022-10-01T08:23:41.344Z,100.00
2022-10-01T08:27:00.229Z,100.00
2022-10-01T08:30:07.762Z,100.00
2022-10-01T08:33:15.439Z,100.00
2022-10-01T08:36:21.705Z,100.00
2022-10-01T08:39:27.961Z,100.00
2022-10-01T08:42:55.097Z,100.00
2022-10-01T08:46:23.268Z,100.00
2022-10-01T08:49:37.425Z,100.00
2022-10-01T08:52:52.855Z,100.00
2022-10-01T08:56:00.208Z,100.00
2022-10-01T08:59:18.225Z,100.00
2022-10-01T09:02:28.076Z,100.00
2022-10-01T09:05:54.254Z,100.00
2022-10-01T09:09:38.111Z,100.00
2022-10-01T09:13:13.801Z,100.00
2022-10-01T09:16:42.733Z,100.00
2022-10-01T09:20:14.324Z,100.00
2022-10-01T09:23:32.591Z,100.00
2022-10-01T09:26:40.427Z,100.00
2022-10-01T09:30:07.261Z,100.00
2022-10-01T09:33:25.074Z,100.00
2022-10-01T09:36:35.388Z,100.00
2022-10-01T09:40:03.486Z,100.00
2022-10-01T09:43:11.289Z,100.00
2022-10-01T09:46:17.766Z,100.00
2022-10-01T09:49:26.318Z,100.00
2022-10-01T09:52:35.737Z,100.00
2022-10-01T09:55:45.699Z,100.00
2022-10-01T09:58:57.121Z,100.00
2022-10-01T10:02:04.991Z,100.00
2022-10-01T10:05:28.739Z,100.00
2022-10-01T10:08:42.999Z,100.00
2022-10-01T10:11:49.447Z,100.00
2022-10-01T10:14:57.123Z,100.00
2022-10-01T10:18:10.526Z,100.00
2022-10-01T10:21:19.679Z,100.00
2022-10-01T10:24:34.522Z,100.00
2022-10-01T10:27:55.628Z,100.00
2022-10-01T10:31:01.341Z,100.00
2022-10-01T10:34:16.160Z,100.00
2022-10-01T10:37:28.873Z,100.00
2022-10-01T10:40:43.491Z,100.00
2022-10-01T10:43:49.965Z,100.00
2022-10-01T10:47:01.476Z,100.00
2022-10-01T10:50:06.843Z,100.00
2022-10-01T10:53:27.084Z,100.00
2022-10-01T10:56:32.909Z,100.00
2022-10-01T10:59:39.438Z,100.00
2022-10-01T11:03:15.936Z,100.00
2022-10-01T11:06:22.066Z,100.00
2022-10-01T11:09:51.542Z,100.00
2022-10-01T11:13:10.134Z,100.00
2022-10-01T11:16:39.959Z,100.00
2022-10-01T11:20:12.122Z,100.00
2022-10-01T11:23:38.051Z,100.00
2022-10-01T11:27:36.530Z,100.00
2022-10-01T11:30:59.112Z,100.00
2022-10-01T11:34:14.431Z,100.00
2022-10-01T11:37:42.134Z,100.00
2022-10-01T11:40:58.490Z,99.27
2022-10-01T11:44:18.173Z,98.58
2022-10-01T11:47:34.977Z,98.44
2022-10-01T11:50:45.793Z,99.42
2022-10-01T11:54:00.957Z,96.39
2022-10-01T11:57:33.139Z,96.17
2022-10-01T12:00:41.028Z,92.92
2022-10-01T12:04:04.441Z,92.19
2022-10-01T12:07:21.173Z,92.42
2022-10-01T12:10:42.200Z,93.18
2022-10-01T12:14:06.894Z,93.27
2022-10-01T12:17:28.923Z,95.31
2022-10-01T12:20:46.575Z,95.40
2022-10-01T12:24:12.818Z,93.56
2022-10-01T12:27:51.753Z,92.88
2022-10-01T12:31:25.264Z,93.56
2022-10-01T12:34:39.765Z,91.86
2022-10-01T12:38:26.285Z,93.88
2022-10-01T12:42:31.457Z,93.71
2022-10-01T12:46:03.944Z,90.43
2022-10-01T12:49:34.706Z,90.33
2022-10-01T12:53:04.111Z,90.36
2022-10-01T12:56:33.377Z,89.76
2022-10-01T13:00:17.204Z,89.21
2022-10-01T13:03:28.734Z,89.87
2022-10-01T13:06:52.590Z,89.16
2022-10-01T13:10:04.473Z,88.42
2022-10-01T13:13:33.794Z,86.45
2022-10-01T13:16:49.608Z,87.78
2022-10-01T13:20:09.235Z,85.16
2022-10-01T13:23:51.404Z,85.39
2022-10-01T13:27:01.607Z,84.22
2022-10-01T13:30:19.476Z,82.86
2022-10-01T13:33:31.932Z,83.04
2022-10-01T13:36:37.693Z,83.96
2022-10-01T13:39:46.291Z,85.36
2022-10-01T13:42:55.511Z,83.89
2022-10-01T13:46:11.283Z,84.62
2022-10-01T13:49:29.284Z,83.56
2022-10-01T13:52:35.201Z,81.95
2022-10-01T13:55:43.597Z,83.75
2022-10-01T13:58:50.510Z,83.93
2022-10-01T14:01:56.352Z,81.68
2022-10-01T14:05:30.090Z,81.30
2022-10-01T14:08:45.193Z,82.56
2022-10-01T14:12:33.167Z,82.14
2022-10-01T14:16:00.247Z,82.54
2022-10-01T14:19:06.451Z,82.50
2022-10-01T14:22:44.266Z,83.17
2022-10-01T14:26:13.886Z,81.67
2022-10-01T14:29:46.758Z,82.01
2022-10-01T14:33:13.461Z,82.18
2022-10-01T14:36:49.554Z,81.54
2022-10-01T14:40:04.464Z,80.78
2022-10-01T14:43:25.378Z,80.19
2022-10-01T14:46:36.306Z,80.67
2022-10-01T14:49:42.306Z,81.13
2022-10-01T14:52:55.316Z,81.02
2022-10-01T14:56:11.943Z,80.45
2022-10-01T14:59:24.943Z,81.27
2022-10-01T15:02:30.458Z,81.52
2022-10-01T15:05:37.656Z,81.97
2022-10-01T15:08:50.612Z,82.27
2022-10-01T15:11:56.182Z,81.01
2022-10-01T15:15:02.198Z,80.17
2022-10-01T15:18:11.916Z,80.48
2022-10-01T15:21:24.980Z,80.82
2022-10-01T15:24:44.637Z,80.35
2022-10-01T15:27:50.238Z,81.59
2022-10-01T15:30:57.173Z,82.00
2022-10-01T15:34:05.187Z,83.16
2022-10-01T15:37:21.407Z,82.45
2022-10-01T15:40:36.882Z,82.90
2022-10-01T15:43:43.202Z,83.12
2022-10-01T15:46:48.669Z,84.10
2022-10-01T15:50:08.969Z,83.73
2022-10-01T15:53:21.875Z,83.62
2022-10-01T15:56:26.986Z,83.00
2022-10-01T15:59:35.840Z,83.48
2022-10-01T16:02:45.279Z,83.59
2022-10-01T16:05:55.216Z,82.13
2022-10-01T16:09:20.039Z,84.03
2022-10-01T16:12:28.883Z,84.16
2022-10-01T16:15:34.425Z,84.34
2022-10-01T16:18:41.405Z,84.72
2022-10-01T16:22:20.540Z,85.51
2022-10-01T16:25:33.267Z,86.68
2022-10-01T16:28:38.765Z,86.05
2022-10-01T16:31:45.763Z,86.12
2022-10-01T16:34:50.993Z,86.47
2022-10-01T16:37:58.262Z,87.11
2022-10-01T16:41:05.637Z,87.70
2022-10-01T16:44:13.898Z,88.43
2022-10-01T16:47:19.621Z,88.43
2022-10-01T16:50:25.343Z,90.20
2022-10-01T16:53:30.896Z,90.21
2022-10-01T16:56:36.538Z,90.92
2022-10-01T16:59:42.144Z,90.20
2022-10-01T17:02:48.169Z,91.01
2022-10-01T17:05:53.573Z,91.86
2022-10-01T17:09:00.088Z,92.77
2022-10-01T17:12:05.844Z,93.02
2022-10-01T17:15:18.358Z,93.10
2022-10-01T17:18:23.785Z,93.44
2022-10-01T17:21:29.691Z,93.55
2022-10-01T17:24:34.988Z,93.58
2022-10-01T17:27:40.450Z,93.44
2022-10-01T17:30:48.509Z,94.25
2022-10-01T17:33:54.341Z,94.33
2022-10-01T17:37:00.615Z,93.81
2022-10-01T17:40:07.375Z,92.86
2022-10-01T17:43:14.459Z,94.25
2022-10-01T17:46:20.661Z,93.52
2022-10-01T17:49:25.695Z,93.23
2022-10-01T17:52:32.554Z,93.83
2022-10-01T17:55:42.492Z,96.59
2022-10-01T17:58:47.736Z,96.34
2022-10-01T18:01:54.854Z,98.67
2022-10-01T18:04:59.965Z,98.46
2022-10-01T18:08:05.828Z,96.73
2022-10-01T18:11:12.643Z,97.23
2022-10-01T18:14:18.336Z,98.21
2022-10-01T18:17:24.258Z,97.86
2022-10-01T18:20:29.561Z,98.60
2022-10-01T18:23:37.002Z,97.57
2022-10-01T18:26:42.457Z,98.08
2022-10-01T18:29:48.172Z,97.37
2022-10-01T18:32:57.479Z,96.89
2022-10-01T18:36:06.742Z,98.21
2022-10-01T18:39:19.962Z,97.98
2022-10-01T18:42:46.196Z,97.81
2022-10-01T18:46:19.097Z,98.37
2022-10-01T18:49:49.134Z,98.15
2022-10-01T18:53:58.953Z,98.45
2022-10-01T18:57:34.473Z,99.03
2022-10-01T19:01:02.482Z,99.06
2022-10-01T19:04:20.043Z,99.98
2022-10-01T19:07:49.783Z,100.00
2022-10-01T19:11:32.239Z,100.00
2022-10-01T19:14:59.301Z,100.00
2022-10-01T19:18:42.140Z,100.00
2022-10-01T19:21:59.130Z,100.00
2022-10-01T19:25:26.234Z,100.00
2022-10-01T19:28:59.075Z,100.00
2022-10-01T19:32:13.781Z,100.00
2022-10-01T19:35:29.653Z,100.00
2022-10-01T19:38:42.732Z,100.00
2022-10-01T19:42:02.318Z,100.00
2022-10-01T19:45:17.420Z,100.00
2022-10-01T19:48:42.691Z,100.00
2022-10-01T19:51:57.851Z,100.00
2022-10-01T19:55:12.839Z,100.00
2022-10-01T19:58:20.589Z,100.00
2022-10-01T20:01:36.051Z,100.00
2022-10-01T20:04:47.940Z,100.00
2022-10-01T20:08:25.244Z,100.00
2022-10-01T20:11:53.275Z,100.00
2022-10-01T20:15:15.072Z,100.00
2022-10-01T20:18:35.650Z,100.00
2022-10-01T20:22:06.503Z,100.00
2022-10-01T20:25:24.636Z,100.00
2022-10-01T20:28:57.694Z,100.00
2022-10-01T20:32:33.131Z,100.00
2022-10-01T20:36:04.485Z,100.00
2022-10-01T20:39:34.410Z,100.00
2022-10-01T20:42:47.061Z,100.00
2022-10-01T20:45:55.868Z,100.00
2022-10-01T20:49:06.076Z,100.00
2022-10-01T20:52:38.546Z,100.00
2022-10-01T20:55:51.782Z,100.00
2022-10-01T20:59:15.610Z,100.00
2022-10-01T21:02:39.707Z,100.00
2022-10-01T21:06:12.112Z,100.00
2022-10-01T21:09:26.054Z,100.00
2022-10-01T21:12:41.637Z,100.00
2022-10-01T21:16:05.936Z,100.00
2022-10-01T21:19:43.280Z,100.00
2022-10-01T21:23:07.514Z,100.00
2022-10-01T21:26:25.604Z,100.00
2022-10-01T21:29:42.065Z,100.00
2022-10-01T21:33:20.990Z,100.00
2022-10-01T21:36:47.874Z,100.00
2022-10-01T21:40:05.847Z,100.00
2022-10-01T21:43:32.816Z,100.00
2022-10-01T21:46:46.930Z,100.00
2022-10-01T21:50:15.944Z,100.00
2022-10-01T21:53:33.518Z,100.00
2022-10-01T21:56:47.779Z,100.00
2022-10-01T22:00:03.180Z,100.00
2022-10-01T22:03:34.534Z,100.00
2022-10-01T22:06:53.063Z,100.00
2022-10-01T22:10:28.041Z,100.00
2022-10-01T22:13:37.919Z,100.00
2022-10-01T22:16:48.070Z,100.00
2022-10-01T22:19:57.357Z,100.00
2022-10-01T22:23:10.185Z,100.00
2022-10-01T22:26:21.011Z,100.00
2022-10-01T22:29:30.302Z,100.00
2022-10-01T22:32:43.784Z,100.00
2022-10-01T22:36:02.750Z,100.00
2022-10-01T22:39:16.653Z,100.00
2022-10-01T22:42:37.568Z,100.00
2022-10-01T22:46:24.692Z,100.00
2022-10-01T22:49:44.514Z,100.00
2022-10-01T22:52:59.195Z,100.00
2022-10-01T22:56:04.542Z,100.00
2022-10-01T22:59:36.653Z,100.00
2022-10-01T23:03:10.375Z,100.00
2022-10-01T23:06:29.712Z,100.00
2022-10-01T23:09:44.075Z,100.00
2022-10-01T23:13:06.948Z,100.00
2022-10-01T23:16:31.227Z,100.00
2022-10-01T23:19:54.442Z,100.00
2022-10-01T23:23:10.880Z,100.00
2022-10-01T23:26:36.477Z,100.00
2022-10-01T23:29:54.116Z,100.00
2022-10-01T23:33:38.280Z,100.00
2022-10-01T23:36:53.555Z,100.00
2022-10-01T23:40:03.956Z,100.00
2022-10-01T23:43:30.554Z,100.00
2022-10-01T23:46:40.297Z,100.00
2022-10-01T23:49:56.726Z,100.00
2022-10-01T23:53:16.936Z,100.00
2022-10-01T23:56:49.020Z,100.00
